Time;durP1;ratioP1;P1;durP2;ratioP2;P2;SDS_P1;SDS_P2;PMS_P1;PMS_P2;Temp;Humidity;BMP_temperature;BMP_pressure;BME280_temperature;BME280_humidity;BME280_pressure;Samples;Min_cycle;Max_cycle;Signal;HPM_P1;HPM_P2
2024/01/02 00:01:09;;;;;;;;;;;;;;;;;;5099291;28;19924;-70
2024/01/02 00:03:35;;;;;;;;;;;;;;;;;;5106416;28;20011;-69
2024/01/02 00:06:01;;;;;;;;;;;;;;;;;;5108702;28;20197;-68
2024/01/02 00:08:27;;;;;;;;;;;;;;;;;;5106399;28;20500;-69
2024/01/02 00:10:53;;;;;;;;;;;;;;;;;;5103203;28;19976;-69
2024/01/02 00:13:19;;;;;;;;;;;;;;;;;;5103629;28;19924;-69
2024/01/02 00:15:45;;;;;;;;;;;;;;;;;;5103594;28;19924;-69
2024/01/02 00:18:11;;;;;;;;;;;;;;;;;;5105772;28;20068;-69
2024/01/02 00:20:36;;;;;;;;;;;;;;;;;;5110723;28;20374;-70
2024/01/02 00:23:02;;;;;;;;;;;;;;;;;;5086688;28;19920;-70
2024/01/02 00:25:28;;;;;;;;;;;;;;;;;;5108935;28;19969;-69
2024/01/02 00:27:54;;;;;;;;;;;;;;;;;;5090654;28;19923;-69
2024/01/02 00:30:20;;;;;;;;;;;;;;;;;;5102554;28;19924;-69
2024/01/02 00:32:46;;;;;;;;;;;;;;;;;;5108085;28;19924;-69
2024/01/02 00:35:12;;;;;;;;;;;;;;;;;;5108740;28;19934;-69
2024/01/02 00:37:38;;;;;;;;;;;;;;;;;;5107776;28;20391;-69
2024/01/02 00:40:04;;;;;;;;;;;;;;;;;;5107772;28;20014;-68
2024/01/02 00:42:30;;;;;;;;;;;;;;;;;;5107035;28;20010;-69
2024/01/02 00:44:56;;;;;;;;;;;;;;;;;;5103613;28;19994;-69
2024/01/02 00:47:22;;;;;;;;;;;;;;;;;;5108291;28;20280;-69
2024/01/02 00:49:48;;;;;;;;;;;;;;;;;;5101860;28;19966;-69
2024/01/02 00:52:14;;;;;;;;;;;;;;;;;;5108958;28;19928;-68
2024/01/02 00:54:40;;;;;;;;;;;;;;;;;;5109170;28;19920;-69
2024/01/02 00:57:07;;;;;;;;;;;;;;;;;;5084207;28;20456;-69
2024/01/02 00:59:33;;;;;;;;;;;;;;;;;;5101709;28;20014;-69
2024/01/02 01:01:59;;;;;;;;;;;;;;;;;;5109017;28;20592;-68
2024/01/02 01:04:25;;;;;;;;;;;;;;;;;;5111774;28;19923;-69
2024/01/02 01:06:51;;;;;;;;;;;;;;;;;;5112866;28;19980;-69
2024/01/02 01:09:18;;;;;;;;;;;;;;;;;;5109995;28;19935;-69
2024/01/02 01:11:44;;;;;;;;;;;;;;;;;;5091382;28;19977;-69
2024/01/02 01:14:10;;;;;;;;;;;;;;;;;;5111119;28;19923;-69
2024/01/02 01:16:36;;;;;;;;;;;;;;;;;;5106443;28;20285;-69
2024/01/02 01:19:02;;;;;;;;;;;;;;;;;;5091213;28;19955;-69
2024/01/02 01:21:28;;;;;;;;;;;;;;;;;;5094750;28;19963;-69
2024/01/02 01:23:54;;;;;;;;;;;;;;;;;;5109956;28;20019;-69
2024/01/02 01:26:20;;;;;;;;;;;;;;;;;;5111511;28;19967;-69
2024/01/02 01:28:46;;;;;;;;;;;;;;;;;;5082109;28;19962;-70
2024/01/02 01:31:12;;;;;;;;;;;;;;;;;;5087330;28;20354;-69
2024/01/02 01:33:38;;;;;;;;;;;;;;;;;;5109480;28;19920;-70
2024/01/02 01:36:04;;;;;;;;;;;;;;;;;;5092478;28;19928;-70
2024/01/02 01:38:30;;;;;;;;;;;;;;;;;;5111856;28;19924;-69
2024/01/02 01:40:56;;;;;;;;;;;;;;;;;;5113093;28;19942;-70
2024/01/02 01:43:22;;;;;;;;;;;;;;;;;;5105016;27;19973;-70
2024/01/02 01:45:48;;;;;;;;;;;;;;;;;;5107119;28;19920;-70
2024/01/02 01:48:13;;;;;;;;;;;;;;;;;;5088437;28;20310;-70
2024/01/02 01:50:39;;;;;;;;;;;;;;;;;;5110708;28;19976;-69
2024/01/02 01:53:05;;;;;;;;;;;;;;;;;;5104528;28;19919;-69
2024/01/02 01:55:32;;;;;;;;;;;;;;;;;;5108593;28;19924;-69
2024/01/02 01:57:57;;;;;;;;;;;;;;;;;;5109991;28;19931;-69
2024/01/02 02:00:23;;;;;;;;;;;;;;;;;;5104779;27;19928;-69
2024/01/02 02:02:49;;;;;;;;;;;;;;;;;;5104423;28;20502;-70
2024/01/02 02:05:15;;;;;;;;;;;;;;;;;;5104830;28;19928;-69
2024/01/02 02:07:42;;;;;;;;;;;;;;;;;;5101758;28;19930;-70
2024/01/02 02:10:08;;;;;;;;;;;;;;;;;;5105473;28;19932;-69
2024/01/02 02:12:34;;;;;;;;;;;;;;;;;;5108500;28;19932;-68
2024/01/02 02:15:00;;;;;;;;;;;;;;;;;;5107607;28;19926;-68
2024/01/02 02:17:26;;;;;;;;;;;;;;;;;;5103562;28;19923;-68
2024/01/02 02:19:52;;;;;;;;;;;;;;;;;;5113406;28;19924;-68
2024/01/02 02:22:18;;;;;;;;;;;;;;;;;;5109311;28;19951;-69
2024/01/02 02:24:44;;;;;;;;;;;;;;;;;;5104600;28;19927;-68
2024/01/02 02:27:10;;;;;;;;;;;;;;;;;;5103945;28;19920;-68
2024/01/02 02:29:35;;;;;;;;;;;;;;;;;;5096197;28;20397;-69
2024/01/02 02:32:01;;;;;;;;;;;;;;;;;;5095383;28;19936;-68
2024/01/02 02:34:27;;;;;;;;;;;;;;;;;;5111395;28;19920;-69
2024/01/02 02:36:53;;;;;;;;;;;;;;;;;;5110960;28;19919;-69
2024/01/02 02:39:19;;;;;;;;;;;;;;;;;;5097513;28;20606;-69
2024/01/02 02:41:45;;;;;;;;;;;;;;;;;;5080421;28;19946;-69
2024/01/02 02:44:11;;;;;;;;;;;;;;;;;;5100962;28;20365;-69
2024/01/02 02:46:37;;;;;;;;;;;;;;;;;;5106596;28;20003;-70
2024/01/02 02:49:03;;;;;;;;;;;;;;;;;;5102523;28;20010;-69
2024/01/02 02:51:29;;;;;;;;;;;;;;;;;;5109427;28;20054;-69
2024/01/02 02:53:55;;;;;;;;;;;;;;;;;;5098125;28;19928;-69
2024/01/02 02:56:20;;;;;;;;;;;;;;;;;;5112899;28;19940;-69
2024/01/02 02:58:46;;;;;;;;;;;;;;;;;;5090938;28;20003;-69
2024/01/02 03:01:12;;;;;;;;;;;;;;;;;;5107549;28;19928;-69
2024/01/02 03:03:38;;;;;;;;;;;;;;;;;;5100796;28;19927;-69
2024/01/02 03:06:04;;;;;;;;;;;;;;;;;;5108103;28;20284;-70
2024/01/02 03:08:30;;;;;;;;;;;;;;;;;;5105837;28;19926;-68
2024/01/02 03:10:59;;;;;;;;;;;;;;;;;;5107196;28;19932;-68
2024/01/02 03:13:25;;;;;;;;;;;;;;;;;;5107816;28;19924;-69
2024/01/02 03:15:51;;;;;;;;;;;;;;;;;;5104350;28;19920;-68
2024/01/02 03:18:17;;;;;;;;;;;;;;;;;;5109188;28;19919;-69
2024/01/02 03:20:42;;;;;;;;;;;;;;;;;;5111102;28;19923;-68
2024/01/02 03:23:08;;;;;;;;;;;;;;;;;;5106252;28;20312;-69
2024/01/02 03:25:34;;;;;;;;;;;;;;;;;;5107468;28;19926;-69
2024/01/02 03:28:00;;;;;;;;;;;;;;;;;;5087041;28;19927;-70
2024/01/02 03:30:26;;;;;;;;;;;;;;;;;;5106832;28;19949;-69
2024/01/02 03:32:52;;;;;;;;;;;;;;;;;;5109415;28;20361;-69
2024/01/02 03:35:18;;;;;;;;;;;;;;;;;;5100402;28;19920;-69
2024/01/02 03:37:44;;;;;;;;;;;;;;;;;;5112379;27;19920;-69
2024/01/02 03:40:10;;;;;;;;;;;;;;;;;;5089393;28;20377;-69
2024/01/02 03:42:36;;;;;;;;;;;;;;;;;;5108890;28;20039;-69
2024/01/02 03:45:02;;;;;;;;;;;;;;;;;;5109915;28;20010;-68
2024/01/02 03:47:28;;;;;;;;;;;;;;;;;;5110065;28;19927;-69
2024/01/02 03:49:54;;;;;;;;;;;;;;;;;;5108112;28;20326;-69
2024/01/02 03:52:20;;;;;;;;;;;;;;;;;;5103214;28;19924;-69
2024/01/02 03:54:46;;;;;;;;;;;;;;;;;;5105880;28;20399;-68
2024/01/02 03:57:12;;;;;;;;;;;;;;;;;;5103163;28;19928;-68
2024/01/02 03:59:38;;;;;;;;;;;;;;;;;;5104584;28;19924;-67
2024/01/02 04:02:04;;;;;;;;;;;;;;;;;;5106220;28;19945;-68
2024/01/02 04:04:30;;;;;;;;;;;;;;;;;;5106520;28;19920;-68
2024/01/02 04:06:56;;;;;;;;;;;;;;;;;;5087300;28;19941;-68
2024/01/02 04:09:22;;;;;;;;;;;;;;;;;;5099333;28;20477;-69
2024/01/02 04:11:49;;;;;;;;;;;;;;;;;;5103878;28;19924;-68
2024/01/02 04:14:15;;;;;;;;;;;;;;;;;;5100056;28;20392;-68
2024/01/02 04:16:42;;;;;;;;;;;;;;;;;;5105393;28;19924;-68
2024/01/02 04:19:08;;;;;;;;;;;;;;;;;;5101560;28;19919;-69
2024/01/02 04:21:34;;;;;;;;;;;;;;;;;;5104279;28;20376;-68
2024/01/02 04:24:00;;;;;;;;;;;;;;;;;;5099618;28;20002;-68
2024/01/02 04:26:26;;;;;;;;;;;;;;;;;;5090371;28;20003;-68
2024/01/02 04:28:52;;;;;;;;;;;;;;;;;;5104692;28;19936;-68
2024/01/02 04:31:18;;;;;;;;;;;;;;;;;;5104271;28;19978;-68
2024/01/02 04:33:44;;;;;;;;;;;;;;;;;;5099165;28;19924;-67
2024/01/02 04:36:10;;;;;;;;;;;;;;;;;;5096474;28;19924;-66
2024/01/02 04:38:36;;;;;;;;;;;;;;;;;;5094017;28;20006;-68
2024/01/02 04:41:02;;;;;;;;;;;;;;;;;;5108817;28;19924;-68
2024/01/02 04:43:28;;;;;;;;;;;;;;;;;;5106214;28;19923;-68
2024/01/02 04:45:54;;;;;;;;;;;;;;;;;;5110655;28;19926;-68
2024/01/02 04:48:20;;;;;;;;;;;;;;;;;;5100226;28;19927;-67
2024/01/02 04:50:46;;;;;;;;;;;;;;;;;;5113333;28;19977;-68
2024/01/02 04:53:12;;;;;;;;;;;;;;;;;;5112893;28;19919;-68
2024/01/02 04:55:38;;;;;;;;;;;;;;;;;;5113259;28;20356;-67
2024/01/02 04:58:04;;;;;;;;;;;;;;;;;;5110616;28;19920;-68
2024/01/02 05:00:30;;;;;;;;;;;;;;;;;;5102526;28;19924;-67
2024/01/02 05:02:56;;;;;;;;;;;;;;;;;;5105525;28;20332;-67
2024/01/02 05:05:22;;;;;;;;;;;;;;;;;;5101402;28;19931;-67
2024/01/02 05:07:48;;;;;;;;;;;;;;;;;;5109478;28;20361;-68
2024/01/02 05:10:14;;;;;;;;;;;;;;;;;;5100440;28;20393;-67
2024/01/02 05:12:40;;;;;;;;;;;;;;;;;;5107885;28;19924;-67
2024/01/02 05:15:06;;;;;;;;;;;;;;;;;;5102577;28;19926;-68
2024/01/02 05:17:32;;;;;;;;;;;;;;;;;;5105358;28;19946;-67
2024/01/02 05:19:58;;;;;;;;;;;;;;;;;;5110308;28;19966;-68
2024/01/02 05:22:23;;;;;;;;;;;;;;;;;;5110731;28;20269;-67
2024/01/02 05:24:49;;;;;;;;;;;;;;;;;;5112522;28;19923;-67
2024/01/02 05:27:15;;;;;;;;;;;;;;;;;;5104100;28;20258;-67
2024/01/02 05:29:41;;;;;;;;;;;;;;;;;;5103097;28;19928;-67
2024/01/02 05:32:07;;;;;;;;;;;;;;;;;;5110201;28;19963;-67
2024/01/02 05:34:33;;;;;;;;;;;;;;;;;;5095447;28;19971;-66
2024/01/02 05:36:59;;;;;;;;;;;;;;;;;;5104011;28;19926;-67
2024/01/02 05:39:25;;;;;;;;;;;;;;;;;;5108536;28;19930;-67
2024/01/02 05:41:51;;;;;;;;;;;;;;;;;;5109312;28;19919;-67
2024/01/02 05:44:17;;;;;;;;;;;;;;;;;;5104722;28;19920;-67
2024/01/02 05:46:43;;;;;;;;;;;;;;;;;;5099365;27;19920;-67
2024/01/02 05:49:09;;;;;;;;;;;;;;;;;;5100529;28;19927;-68
2024/01/02 05:51:34;;;;;;;;;;;;;;;;;;5108415;28;19985;-67
2024/01/02 05:54:00;;;;;;;;;;;;;;;;;;5108979;28;19954;-68
2024/01/02 05:56:26;;;;;;;;;;;;;;;;;;5106087;27;20849;-68
2024/01/02 05:58:52;;;;;;;;;;;;;;;;;;5105717;28;19930;-67
2024/01/02 06:01:18;;;;;;;;;;;;;;;;;;5106619;28;19927;-67
2024/01/02 06:03:44;;;;;;;;;;;;;;;;;;5107836;28;19924;-67
2024/01/02 06:06:10;;;;;;;;;;;;;;;;;;5099065;28;20014;-67
2024/01/02 06:08:36;;;;;;;;;;;;;;;;;;5098561;28;19935;-67
2024/01/02 06:11:02;;;;;;;;;;;;;;;;;;5097725;28;19994;-68
2024/01/02 06:13:28;;;;;;;;;;;;;;;;;;5111291;28;19919;-67
2024/01/02 06:15:54;;;;;;;;;;;;;;;;;;5099920;28;19920;-68
2024/01/02 06:18:19;;;;;;;;;;;;;;;;;;5105842;28;19976;-68
2024/01/02 06:20:45;;;;;;;;;;;;;;;;;;5101948;28;20384;-68
2024/01/02 06:23:11;;;;;;;;;;;;;;;;;;5093762;28;19934;-68
2024/01/02 06:25:37;;;;;;;;;;;;;;;;;;5109093;28;19920;-68
2024/01/02 06:28:03;;;;;;;;;;;;;;;;;;5112630;28;19974;-68
2024/01/02 06:30:29;;;;;;;;;;;;;;;;;;5104915;28;19924;-69
2024/01/02 06:32:55;;;;;;;;;;;;;;;;;;5101888;28;19924;-68
2024/01/02 06:35:21;;;;;;;;;;;;;;;;;;5092252;28;19928;-68
2024/01/02 06:37:47;;;;;;;;;;;;;;;;;;5108026;28;19924;-68
2024/01/02 06:40:13;;;;;;;;;;;;;;;;;;5099843;28;19920;-68
2024/01/02 06:42:39;;;;;;;;;;;;;;;;;;5105179;28;19926;-69
2024/01/02 06:45:05;;;;;;;;;;;;;;;;;;5110649;28;19924;-68
2024/01/02 06:47:31;;;;;;;;;;;;;;;;;;5104722;28;19924;-68
2024/01/02 06:49:57;;;;;;;;;;;;;;;;;;5105011;28;19942;-68
2024/01/02 06:52:23;;;;;;;;;;;;;;;;;;5102624;28;19931;-68
2024/01/02 06:54:49;;;;;;;;;;;;;;;;;;5102250;28;19930;-68
2024/01/02 06:57:16;;;;;;;;;;;;;;;;;;5101188;28;20422;-68
2024/01/02 06:59:44;;;;;;;;;;;;;;;;;;5102700;28;20012;-68
2024/01/02 07:02:10;;;;;;;;;;;;;;;;;;5102218;28;20423;-69
2024/01/02 07:04:35;;;;;;;;;;;;;;;;;;5109230;28;19959;-68
2024/01/02 07:07:01;;;;;;;;;;;;;;;;;;5103922;27;19927;-68
2024/01/02 07:09:27;;;;;;;;;;;;;;;;;;5106042;28;19920;-68
2024/01/02 07:11:53;;;;;;;;;;;;;;;;;;5102549;28;20385;-68
2024/01/02 07:14:19;;;;;;;;;;;;;;;;;;5102379;28;19930;-68
2024/01/02 07:16:45;;;;;;;;;;;;;;;;;;5106836;28;19920;-68
2024/01/02 07:19:11;;;;;;;;;;;;;;;;;;5101907;28;19920;-68
2024/01/02 07:21:37;;;;;;;;;;;;;;;;;;5098656;28;19950;-68
2024/01/02 07:24:03;;;;;;;;;;;;;;;;;;5104160;28;20343;-68
2024/01/02 07:26:29;;;;;;;;;;;;;;;;;;5108336;28;20369;-68
2024/01/02 07:28:54;;;;;;;;;;;;;;;;;;5118419;27;19920;-68
2024/01/02 07:31:20;;;;;;;;;;;;;;;;;;5110546;28;19931;-69
2024/01/02 07:33:46;;;;;;;;;;;;;;;;;;5107847;28;20008;-68
2024/01/02 07:36:12;;;;;;;;;;;;;;;;;;5102923;28;20331;-68
2024/01/02 07:38:38;;;;;;;;;;;;;;;;;;5098397;28;19923;-68
2024/01/02 07:41:04;;;;;;;;;;;;;;;;;;5104123;28;19920;-67
2024/01/02 07:43:30;;;;;;;;;;;;;;;;;;5106104;28;20060;-68
2024/01/02 07:45:56;;;;;;;;;;;;;;;;;;5105328;28;20333;-68
2024/01/02 07:48:22;;;;;;;;;;;;;;;;;;5092119;28;20014;-68
2024/01/02 07:50:48;;;;;;;;;;;;;;;;;;5108235;28;19975;-69
2024/01/02 07:53:19;;;;;;;;;;;;;;;;;;5110331;28;20029;-68
2024/01/02 07:55:45;;;;;;;;;;;;;;;;;;5098889;28;19931;-68
2024/01/02 07:58:11;;;;;;;;;;;;;;;;;;5105204;28;20166;-69
2024/01/02 08:00:37;;;;;;;;;;;;;;;;;;5103224;28;19920;-70
2024/01/02 08:03:03;;;;;;;;;;;;;;;;;;5109628;28;19924;-69
2024/01/02 08:05:29;;;;;;;;;;;;;;;;;;5104020;28;19926;-69
2024/01/02 08:07:55;;;;;;;;;;;;;;;;;;5100702;28;19920;-68
2024/01/02 08:10:21;;;;;;;;;;;;;;;;;;5105383;28;19920;-68
2024/01/02 08:12:47;;;;;;;;;;;;;;;;;;5112626;28;19927;-69
2024/01/02 08:15:14;;;;;;;;;;;;;;;;;;5112330;28;19926;-67
2024/01/02 08:17:40;;;;;;;;;;;;;;;;;;5112760;28;19926;-67
2024/01/02 08:20:06;;;;;;;;;;;;;;;;;;5104996;27;19923;-67
2024/01/02 08:22:32;;;;;;;;;;;;;;;;;;5105856;28;19924;-69
2024/01/02 08:24:58;;;;;;;;;;;;;;;;;;5105256;28;19951;-70
2024/01/02 08:27:25;;;;;;;;;;;;;;;;;;5093569;28;19942;-69
2024/01/02 08:29:51;;;;;;;;;;;;;;;;;;5115325;28;20010;-69
2024/01/02 08:32:17;;;;;;;;;;;;;;;;;;5109641;28;20023;-69
2024/01/02 08:34:43;;;;;;;;;;;;;;;;;;5110431;28;19932;-68
2024/01/02 08:37:09;;;;;;;;;;;;;;;;;;5105706;28;19973;-68
2024/01/02 08:39:35;;;;;;;;;;;;;;;;;;5108714;28;20585;-68
2024/01/02 08:42:02;;;;;;;;;;;;;;;;;;5104079;28;19923;-69
2024/01/02 08:44:28;;;;;;;;;;;;;;;;;;5115095;28;19923;-68
2024/01/02 08:46:54;;;;;;;;;;;;;;;;;;5107309;27;19927;-68
2024/01/02 08:49:20;;;;;;;;;;;;;;;;;;5096886;27;19923;-68
2024/01/02 08:51:46;;;;;;;;;;;;;;;;;;5108451;28;20002;-68
2024/01/02 08:54:11;;;;;;;;;;;;;;;;;;5113077;28;19934;-68
2024/01/02 08:56:37;;;;;;;;;;;;;;;;;;5109694;28;19941;-68
2024/01/02 08:59:03;;;;;;;;;;;;;;;;;;5093892;28;20572;-69
2024/01/02 09:01:29;;;;;;;;;;;;;;;;;;5105554;28;19920;-69
2024/01/02 09:03:55;;;;;;;;;;;;;;;;;;5106839;28;19942;-68
2024/01/02 09:06:21;;;;;;;;;;;;;;;;;;5107972;28;19964;-68
2024/01/02 09:08:47;;;;;;;;;;;;;;;;;;5108045;28;19971;-70
2024/01/02 09:11:13;;;;;;;;;;;;;;;;;;5106110;27;19924;-69
2024/01/02 09:13:39;;;;;;;;;;;;;;;;;;5107040;28;19927;-69
2024/01/02 09:16:05;;;;;;;;;;;;;;;;;;5106866;28;19928;-69
2024/01/02 09:18:31;;;;;;;;;;;;;;;;;;5103276;28;20357;-69
2024/01/02 09:20:57;;;;;;;;;;;;;;;;;;5101787;28;19927;-69
2024/01/02 09:23:23;;;;;;;;;;;;;;;;;;5110488;28;19920;-69
2024/01/02 09:25:49;;;;;;;;;;;;;;;;;;5111032;22;19946;-65
2024/01/02 09:28:15;;;;;;;;;;;;;;;;;;5088984;28;20380;-65
2024/01/02 09:30:43;;;;;;;;;;;;;;;;;;5084018;28;19929;-65
2024/01/02 09:33:09;;;;;;;;;;;;;;;;;;5081710;28;19928;-65
2024/01/02 09:35:36;;;;;;;;;;;;;;;;;;5086310;28;19927;-65
2024/01/02 09:38:02;;;;;;;;;;;;;;;;;;5089231;28;20404;-65
2024/01/02 09:40:28;;;;;;;;;;;;;;;;;;5084014;28;19920;-65
2024/01/02 09:42:54;;;;;;;;;;;;;;;;;;5089772;28;19924;-65
2024/01/02 09:45:20;;;;;;;;;;;;;;;;;;5089715;28;19921;-64
2024/01/02 09:47:46;;;;;;;;;;;;;;;;;;5082135;28;19930;-64
2024/01/02 09:50:12;;;;;;;;;;;;;;;;;;5086471;28;20590;-64
2024/01/02 09:52:38;;;;;;;;;;;;;;;;;;5082871;28;19921;-65
2024/01/02 09:55:04;;;;;;;;;;;;;;;;;;5082147;28;19946;-65
2024/01/02 09:57:32;;;;;;;;;;;;;;;;;;5064966;28;19924;-65
2024/01/02 09:59:58;;;;;;;;;;;;;;;;;;5077558;28;19920;-65
2024/01/02 10:02:24;;;;;;;;;;;;;;;;;;5085770;28;19985;-65
2024/01/02 10:04:50;;;;;;;;;;;;;;;;;;5082512;28;20014;-65
2024/01/02 10:07:16;;;;;;;;;;;;;;;;;;5078471;28;20055;-65
2024/01/02 10:09:42;;;;;;;;;;;;;;;;;;5080101;28;19920;-65
2024/01/02 10:12:08;;;;;;;;;;;;;;;;;;5090968;28;19931;-65
2024/01/02 10:14:34;;;;;;;;;;;;;;;;;;5078022;28;19924;-65
2024/01/02 10:17:00;;;;;;;;;;;;;;;;;;5076115;28;19921;-65
2024/01/02 10:19:26;;;;;;;;;;;;;;;;;;5076396;28;19921;-65
2024/01/02 10:21:51;;;;;;;;;;;;;;;;;;5086787;28;19924;-65
2024/01/02 10:24:17;;;;;;;;;;;;;;;;;;5090201;28;19920;-65
2024/01/02 10:26:44;;;;;;;;;;;;;;;;;;5086320;28;20025;-65
2024/01/02 10:29:10;;;;;;;;;;;;;;;;;;5077129;28;20051;-65
2024/01/02 10:31:35;;;;;;;;;;;;;;;;;;5090505;28;20381;-65
2024/01/02 10:34:03;;;;;;;;;;;;;;;;;;5078466;28;20019;-65
2024/01/02 10:36:29;;;;;;;;;;;;;;;;;;5086945;28;20277;-65
2024/01/02 10:38:54;;;;;;;;;;;;;;;;;;5089019;28;19927;-65
2024/01/02 10:41:20;;;;;;;;;;;;;;;;;;5085609;28;19926;-65
2024/01/02 10:43:46;;;;;;;;;;;;;;;;;;5078334;28;19920;-64
2024/01/02 10:46:12;;;;;;;;;;;;;;;;;;5087277;28;20288;-64
2024/01/02 10:48:38;;;;;;;;;;;;;;;;;;5088802;28;20572;-64
2024/01/02 10:51:04;;;;;;;;;;;;;;;;;;5087679;28;19920;-65
2024/01/02 10:53:31;;;;;;;;;;;;;;;;;;5088104;28;19963;-65
2024/01/02 10:55:57;;;;;;;;;;;;;;;;;;5086128;28;19943;-65
2024/01/02 10:58:23;;;;;;;;;;;;;;;;;;5082476;28;20353;-65
2024/01/02 11:00:49;;;;;;;;;;;;;;;;;;5087181;28;20305;-65
2024/01/02 11:03:15;;;;;;;;;;;;;;;;;;5089667;28;19926;-66
2024/01/02 11:05:41;;;;;;;;;;;;;;;;;;5087548;28;19920;-66
2024/01/02 11:08:07;;;;;;;;;;;;;;;;;;5082036;28;19924;-64
2024/01/02 11:10:33;;;;;;;;;;;;;;;;;;5071963;28;19928;-65
2024/01/02 11:12:59;;;;;;;;;;;;;;;;;;5078457;28;20014;-65
2024/01/02 11:15:25;;;;;;;;;;;;;;;;;;5085640;28;20420;-65
2024/01/02 11:17:52;;;;;;;;;;;;;;;;;;5083017;28;20023;-65
2024/01/02 11:20:19;;;;;;;;;;;;;;;;;;5086846;28;19923;-65
2024/01/02 11:22:45;;;;;;;;;;;;;;;;;;5083855;28;19950;-65
2024/01/02 11:25:11;;;;;;;;;;;;;;;;;;5083085;28;20012;-65
2024/01/02 11:27:37;;;;;;;;;;;;;;;;;;5082909;28;20003;-65
2024/01/02 11:30:04;;;;;;;;;;;;;;;;;;5082494;28;19932;-65
2024/01/02 11:32:30;;;;;;;;;;;;;;;;;;5086721;28;19966;-65
2024/01/02 11:34:57;;;;;;;;;;;;;;;;;;5084502;28;19963;-66
2024/01/02 11:37:23;;;;;;;;;;;;;;;;;;5088127;28;20421;-66
2024/01/02 11:39:49;;;;;;;;;;;;;;;;;;5088278;28;20012;-64
2024/01/02 11:42:15;;;;;;;;;;;;;;;;;;5086190;28;19949;-64
2024/01/02 11:44:41;;;;;;;;;;;;;;;;;;5081643;28;19942;-65
2024/01/02 11:47:07;;;;;;;;;;;;;;;;;;5083332;28;20398;-65
2024/01/02 11:49:32;;;;;;;;;;;;;;;;;;5087696;28;19924;-64
2024/01/02 11:51:58;;;;;;;;;;;;;;;;;;5079511;28;20513;-64
2024/01/02 11:54:24;;;;;;;;;;;;;;;;;;5077217;28;19946;-65
2024/01/02 11:56:50;;;;;;;;;;;;;;;;;;5074397;28;19928;-65
2024/01/02 11:59:16;;;;;;;;;;;;;;;;;;5077984;28;19928;-65
2024/01/02 12:01:42;;;;;;;;;;;;;;;;;;5075243;28;19932;-65
2024/01/02 12:04:08;;;;;;;;;;;;;;;;;;5080404;28;19924;-65
2024/01/02 12:06:34;;;;;;;;;;;;;;;;;;5082366;28;19973;-65
2024/01/02 12:09:00;;;;;;;;;;;;;;;;;;5080304;28;19928;-65
2024/01/02 12:11:26;;;;;;;;;;;;;;;;;;5082191;28;19924;-65
2024/01/02 12:13:52;;;;;;;;;;;;;;;;;;5080937;28;19932;-66
2024/01/02 12:16:18;;;;;;;;;;;;;;;;;;5079523;28;19981;-64
2024/01/02 12:18:45;;;;;;;;;;;;;;;;;;5085028;28;19925;-64
2024/01/02 12:21:11;;;;;;;;;;;;;;;;;;5084146;28;19924;-65
2024/01/02 12:23:37;;;;;;;;;;;;;;;;;;5078122;28;19936;-65
2024/01/02 12:26:03;;;;;;;;;;;;;;;;;;5084713;28;19928;-65
2024/01/02 12:28:29;;;;;;;;;;;;;;;;;;5063411;28;20270;-65
2024/01/02 12:30:55;;;;;;;;;;;;;;;;;;5077318;28;19931;-65
2024/01/02 12:33:21;;;;;;;;;;;;;;;;;;5075090;28;19936;-63
2024/01/02 12:35:47;;;;;;;;;;;;;;;;;;5090008;28;20492;-64
2024/01/02 12:38:14;;;;;;;;;;;;;;;;;;5089399;28;19924;-64
2024/01/02 12:40:40;;;;;;;;;;;;;;;;;;5085460;28;20398;-64
2024/01/02 12:43:06;;;;;;;;;;;;;;;;;;5075754;28;19978;-64
2024/01/02 12:45:31;;;;;;;;;;;;;;;;;;5086281;28;20015;-64
2024/01/02 12:47:59;;;;;;;;;;;;;;;;;;5085240;28;19996;-64
2024/01/02 12:50:26;;;;;;;;;;;;;;;;;;5085476;28;20069;-64
2024/01/02 12:52:52;;;;;;;;;;;;;;;;;;5084777;28;20366;-65
2024/01/02 12:55:18;;;;;;;;;;;;;;;;;;5085912;28;19920;-65
2024/01/02 12:57:44;;;;;;;;;;;;;;;;;;5090411;28;19931;-65
2024/01/02 13:00:10;;;;;;;;;;;;;;;;;;5091303;28;19930;-65
2024/01/02 13:02:36;;;;;;;;;;;;;;;;;;5073013;28;23339;-65
2024/01/02 13:05:02;;;;;;;;;;;;;;;;;;5090336;28;19920;-65
2024/01/02 13:07:30;;;;;;;;;;;;;;;;;;5090405;28;19924;-65
2024/01/02 13:09:59;;;;;;;;;;;;;;;;;;5086251;28;19924;-65
2024/01/02 13:12:25;;;;;;;;;;;;;;;;;;5082719;28;19928;-65
2024/01/02 13:14:51;;;;;;;;;;;;;;;;;;5087728;28;19925;-65
2024/01/02 13:17:17;;;;;;;;;;;;;;;;;;5083180;28;20479;-65
2024/01/02 13:19:43;;;;;;;;;;;;;;;;;;5089475;28;19928;-65
2024/01/02 13:22:09;;;;;;;;;;;;;;;;;;5084009;28;19924;-65
2024/01/02 13:24:35;;;;;;;;;;;;;;;;;;5090793;28;20271;-65
2024/01/02 13:27:01;;;;;;;;;;;;;;;;;;5089640;28;20358;-64
2024/01/02 13:29:27;;;;;;;;;;;;;;;;;;5088130;28;19928;-64
2024/01/02 13:31:55;;;;;;;;;;;;;;;;;;5085224;28;20057;-64
2024/01/02 13:34:21;;;;;;;;;;;;;;;;;;5089926;28;20007;-66
2024/01/02 13:36:48;;;;;;;;;;;;;;;;;;5086116;28;20020;-64
2024/01/02 13:39:14;;;;;;;;;;;;;;;;;;5091162;28;19931;-65
2024/01/02 13:41:40;;;;;;;;;;;;;;;;;;5090994;28;20297;-66
2024/01/02 13:44:06;;;;;;;;;;;;;;;;;;5087417;28;19929;-63
2024/01/02 13:46:32;;;;;;;;;;;;;;;;;;5084754;28;19935;-64
2024/01/02 13:48:59;;;;;;;;;;;;;;;;;;5082164;28;19924;-64
2024/01/02 13:51:27;;;;;;;;;;;;;;;;;;5084594;28;19974;-64
2024/01/02 13:53:54;;;;;;;;;;;;;;;;;;5084612;28;20033;-65
2024/01/02 13:56:20;;;;;;;;;;;;;;;;;;5087821;28;19928;-65
2024/01/02 13:58:46;;;;;;;;;;;;;;;;;;5093159;28;20350;-65
2024/01/02 14:01:12;;;;;;;;;;;;;;;;;;5093245;28;20060;-65
2024/01/02 14:03:38;;;;;;;;;;;;;;;;;;5089846;28;19955;-65
2024/01/02 14:06:04;;;;;;;;;;;;;;;;;;5091500;28;19920;-65
2024/01/02 14:08:30;;;;;;;;;;;;;;;;;;5088974;28;20373;-65
2024/01/02 14:10:56;;;;;;;;;;;;;;;;;;5076444;28;19946;-65
2024/01/02 14:13:22;;;;;;;;;;;;;;;;;;5080987;28;19936;-65
2024/01/02 14:15:48;;;;;;;;;;;;;;;;;;5088858;28;19920;-65
2024/01/02 14:18:14;;;;;;;;;;;;;;;;;;5084219;28;19924;-68
2024/01/02 14:20:40;;;;;;;;;;;;;;;;;;5074117;28;20323;-65
2024/01/02 14:23:06;;;;;;;;;;;;;;;;;;5089005;28;19963;-65
2024/01/02 14:25:32;;;;;;;;;;;;;;;;;;5091285;28;20029;-65
2024/01/02 14:27:58;;;;;;;;;;;;;;;;;;5088840;28;20600;-65
2024/01/02 14:30:23;;;;;;;;;;;;;;;;;;5092161;28;19924;-65
2024/01/02 14:32:49;;;;;;;;;;;;;;;;;;5087810;28;19935;-66
2024/01/02 14:35:15;;;;;;;;;;;;;;;;;;5086528;28;19930;-66
2024/01/02 14:37:41;;;;;;;;;;;;;;;;;;5091856;28;19977;-66
2024/01/02 14:40:07;;;;;;;;;;;;;;;;;;5084002;28;19924;-66
2024/01/02 14:42:34;;;;;;;;;;;;;;;;;;5091430;28;20069;-66
2024/01/02 14:45:00;;;;;;;;;;;;;;;;;;5087955;28;19939;-66
2024/01/02 14:47:26;;;;;;;;;;;;;;;;;;5081852;28;19995;-66
2024/01/02 14:49:52;;;;;;;;;;;;;;;;;;5090432;28;20032;-65
2024/01/02 14:52:18;;;;;;;;;;;;;;;;;;5090294;28;19975;-65
2024/01/02 14:54:44;;;;;;;;;;;;;;;;;;5091634;28;20022;-65
2024/01/02 14:57:10;;;;;;;;;;;;;;;;;;5082684;28;20533;-65
2024/01/02 14:59:36;;;;;;;;;;;;;;;;;;5087700;28;19924;-65
2024/01/02 15:02:02;;;;;;;;;;;;;;;;;;5082986;28;19931;-65
2024/01/02 15:04:28;;;;;;;;;;;;;;;;;;5079235;28;19924;-65
2024/01/02 15:06:54;;;;;;;;;;;;;;;;;;5084121;28;19920;-65
2024/01/02 15:09:20;;;;;;;;;;;;;;;;;;5084453;28;19925;-65
2024/01/02 15:11:46;;;;;;;;;;;;;;;;;;5078245;28;19946;-65
2024/01/02 15:14:12;;;;;;;;;;;;;;;;;;5084053;28;20031;-65
2024/01/02 15:16:38;;;;;;;;;;;;;;;;;;5080961;28;20014;-65
2024/01/02 15:19:04;;;;;;;;;;;;;;;;;;5084019;28;20363;-65
2024/01/02 15:21:30;;;;;;;;;;;;;;;;;;5085412;28;19924;-65
2024/01/02 15:23:56;;;;;;;;;;;;;;;;;;5086242;28;19967;-65
2024/01/02 15:26:22;;;;;;;;;;;;;;;;;;5083244;28;19924;-65
2024/01/02 15:28:48;;;;;;;;;;;;;;;;;;5085106;28;19935;-65
2024/01/02 15:31:15;;;;;;;;;;;;;;;;;;5089081;28;19931;-65
2024/01/02 15:33:41;;;;;;;;;;;;;;;;;;5090673;28;19928;-66
2024/01/02 15:36:08;;;;;;;;;;;;;;;;;;5081075;28;19924;-66
2024/01/02 15:38:34;;;;;;;;;;;;;;;;;;5076415;28;19978;-65
2024/01/02 15:41:00;;;;;;;;;;;;;;;;;;5085254;28;19924;-65
2024/01/02 15:43:26;;;;;;;;;;;;;;;;;;5084078;28;19984;-65
2024/01/02 15:45:52;;;;;;;;;;;;;;;;;;5087230;28;19945;-65
2024/01/02 15:48:18;;;;;;;;;;;;;;;;;;5088800;28;20450;-65
2024/01/02 15:50:44;;;;;;;;;;;;;;;;;;5078328;28;19970;-66
2024/01/02 15:53:11;;;;;;;;;;;;;;;;;;5088565;28;19924;-66
2024/01/02 15:55:40;;;;;;;;;;;;;;;;;;5072882;28;19959;-63
2024/01/02 15:58:06;;;;;;;;;;;;;;;;;;5085137;28;19968;-64
2024/01/02 16:00:32;;;;;;;;;;;;;;;;;;5086403;28;20066;-64
2024/01/02 16:03:01;;;;;;;;;;;;;;;;;;5088214;28;19963;-64
2024/01/02 16:05:27;;;;;;;;;;;;;;;;;;5088472;28;19924;-64
2024/01/02 16:07:53;;;;;;;;;;;;;;;;;;5086447;28;19969;-64
2024/01/02 16:10:19;;;;;;;;;;;;;;;;;;5088467;28;19969;-65
2024/01/02 16:12:45;;;;;;;;;;;;;;;;;;5081728;28;20308;-66
2024/01/02 16:15:10;;;;;;;;;;;;;;;;;;5087234;28;19924;-66
2024/01/02 16:17:36;;;;;;;;;;;;;;;;;;5077365;28;19974;-64
2024/01/02 16:20:02;;;;;;;;;;;;;;;;;;5085003;28;19989;-64
2024/01/02 16:22:29;;;;;;;;;;;;;;;;;;5087939;28;20575;-65
2024/01/02 16:24:55;;;;;;;;;;;;;;;;;;5081062;28;19958;-65
2024/01/02 16:27:21;;;;;;;;;;;;;;;;;;5083622;28;20310;-64
2024/01/02 16:29:47;;;;;;;;;;;;;;;;;;5089492;28;19928;-64
2024/01/02 16:32:13;;;;;;;;;;;;;;;;;;5086012;28;19935;-65
2024/01/02 16:34:39;;;;;;;;;;;;;;;;;;5091448;28;20014;-66
2024/01/02 16:37:05;;;;;;;;;;;;;;;;;;5090067;28;20690;-66